createdAt,value
2023-01-12T00:01:36.846Z,1.18
2023-01-12T00:04:03.633Z,1.15
2023-01-12T00:06:32.288Z,1.25
2023-01-12T00:09:02.366Z,1.25
2023-01-12T00:11:29.380Z,1.19
2023-01-12T00:13:56.097Z,1.22
2023-01-12T00:16:35.982Z,1.13
2023-01-12T00:19:12.915Z,1.35
2023-01-12T00:22:06.859Z,1.38
2023-01-12T00:24:39.123Z,1.25
2023-01-12T00:27:09.008Z,1.26
2023-01-12T00:29:36.564Z,1.06
2023-01-12T00:32:04.819Z,1.08
2023-01-12T00:34:31.629Z,1.28
2023-01-12T00:37:00.308Z,1.27
2023-01-12T00:39:26.999Z,1.31
2023-01-12T00:42:12.082Z,1.36
2023-01-12T00:44:57.456Z,1.25
2023-01-12T00:47:24.062Z,1.09
2023-01-12T00:49:50.783Z,1.31
2023-01-12T00:52:29.903Z,1.30
2023-01-12T00:54:57.493Z,1.24
2023-01-12T00:57:24.258Z,1.24
2023-01-12T00:59:54.949Z,1.02
2023-01-12T01:02:22.079Z,1.14
2023-01-12T01:04:49.532Z,1.10
2023-01-12T01:07:16.193Z,1.13
2023-01-12T01:09:44.269Z,1.13
2023-01-12T01:12:10.999Z,0.95
2023-01-12T01:14:37.626Z,1.14
2023-01-12T01:17:04.204Z,1.11
2023-01-12T01:19:30.818Z,1.04
2023-01-12T01:21:57.394Z,1.07
2023-01-12T01:24:24.171Z,1.05
2023-01-12T01:26:51.566Z,1.08
2023-01-12T01:29:18.668Z,1.10
2023-01-12T01:31:47.770Z,1.11
2023-01-12T01:34:14.825Z,1.09
2023-01-12T01:36:41.893Z,1.06
2023-01-12T01:39:08.861Z,0.97
2023-01-12T01:41:35.534Z,0.90
2023-01-12T01:44:26.745Z,0.93
2023-01-12T01:47:03.441Z,1.00
2023-01-12T01:49:32.451Z,1.19
2023-01-12T01:52:13.720Z,1.11
2023-01-12T01:54:46.496Z,1.08
2023-01-12T01:57:14.872Z,1.12
2023-01-12T01:59:48.936Z,0.91
2023-01-12T02:02:16.543Z,0.89
2023-01-12T02:04:43.464Z,1.05
2023-01-12T02:07:10.959Z,1.14
2023-01-12T02:09:38.534Z,1.10
2023-01-12T02:12:41.083Z,1.11
2023-01-12T02:15:26.703Z,1.02
2023-01-12T02:17:59.080Z,1.06
2023-01-12T02:20:47.223Z,0.91
2023-01-12T02:23:16.911Z,1.16
2023-01-12T02:26:01.385Z,1.03
2023-01-12T02:28:49.934Z,1.07
2023-01-12T02:31:51.250Z,0.99
2023-01-12T02:34:36.502Z,1.01
2023-01-12T02:37:09.336Z,0.93
2023-01-12T02:39:50.768Z,0.97
2023-01-12T02:42:41.343Z,0.91
2023-01-12T02:45:23.461Z,1.03
2023-01-12T02:47:56.029Z,0.93
2023-01-12T02:50:40.005Z,0.85
2023-01-12T02:53:12.716Z,0.98
2023-01-12T02:55:41.237Z,1.05
2023-01-12T02:58:12.711Z,0.94
2023-01-12T03:00:43.009Z,1.00
2023-01-12T03:03:09.653Z,1.02
2023-01-12T03:05:40.949Z,0.84
2023-01-12T03:08:14.072Z,0.95
2023-01-12T03:11:06.802Z,0.93
2023-01-12T03:13:37.392Z,0.97
2023-01-12T03:16:06.469Z,1.04
2023-01-12T03:18:38.723Z,1.00
2023-01-12T03:21:20.708Z,1.00
2023-01-12T03:23:54.248Z,1.04
2023-01-12T03:26:27.855Z,1.10
2023-01-12T03:29:03.954Z,0.98
2023-01-12T03:31:31.097Z,0.97
2023-01-12T03:33:58.262Z,1.12
2023-01-12T03:36:35.528Z,1.13
2023-01-12T03:39:20.287Z,1.16
2023-01-12T03:41:57.554Z,1.16
2023-01-12T03:44:40.226Z,1.07
2023-01-12T03:47:20.830Z,1.22
2023-01-12T03:49:52.824Z,0.99
2023-01-12T03:52:22.059Z,1.09
2023-01-12T03:54:50.083Z,1.23
2023-01-12T03:57:17.623Z,1.04
2023-01-12T03:59:44.315Z,1.22
2023-01-12T04:02:10.961Z,1.23
2023-01-12T04:04:37.670Z,1.23
2023-01-12T04:07:04.425Z,1.20
2023-01-12T04:09:31.250Z,1.07
2023-01-12T04:12:13.057Z,1.25
2023-01-12T04:14:40.554Z,1.23
2023-01-12T04:17:09.476Z,1.25
2023-01-12T04:19:36.094Z,1.19
2023-01-12T04:22:20.999Z,1.33
2023-01-12T04:24:48.695Z,1.36
2023-01-12T04:27:16.310Z,1.26
2023-01-12T04:29:43.163Z,1.11
2023-01-12T04:32:10.216Z,1.22
2023-01-12T04:34:37.012Z,1.34
2023-01-12T04:37:03.952Z,1.36
2023-01-12T04:39:30.499Z,1.31
2023-01-12T04:41:57.284Z,1.27
2023-01-12T04:44:23.903Z,1.34
2023-01-12T04:46:51.467Z,1.39
2023-01-12T04:49:18.173Z,1.29
2023-01-12T04:51:45.259Z,1.41
2023-01-12T04:54:12.227Z,1.29
2023-01-12T04:56:39.099Z,1.30
2023-01-12T04:59:07.377Z,1.32
2023-01-12T05:01:34.238Z,1.38
2023-01-12T05:04:01.138Z,1.29
2023-01-12T05:06:28.920Z,1.36
2023-01-12T05:09:14.327Z,1.40
2023-01-12T05:11:40.963Z,1.39
2023-01-12T05:14:07.703Z,1.32
2023-01-12T05:16:34.390Z,1.30
2023-01-12T05:19:01.078Z,1.35
2023-01-12T05:21:27.659Z,1.38
2023-01-12T05:23:54.377Z,1.13
2023-01-12T05:26:21.234Z,1.36
2023-01-12T05:28:49.804Z,1.23
2023-01-12T05:31:17.159Z,1.35
2023-01-12T05:33:43.921Z,1.11
2023-01-12T05:36:13.867Z,1.31
2023-01-12T05:38:41.156Z,1.34
2023-01-12T05:41:10.303Z,1.31
2023-01-12T05:43:52.205Z,1.23
2023-01-12T05:46:30.703Z,1.28
2023-01-12T05:48:58.110Z,0.96
2023-01-12T05:51:27.288Z,1.23
2023-01-12T05:53:54.987Z,1.12
2023-01-12T05:56:25.863Z,1.34
2023-01-12T05:58:58.646Z,1.35
2023-01-12T06:01:25.919Z,1.34
2023-01-12T06:03:54.217Z,1.25
2023-01-12T06:06:22.526Z,1.43
2023-01-12T06:08:52.145Z,1.28
2023-01-12T06:11:38.774Z,1.26
2023-01-12T06:14:05.849Z,1.32
2023-01-12T06:16:32.511Z,1.31
2023-01-12T06:18:59.089Z,1.26
2023-01-12T06:21:25.825Z,1.27
2023-01-12T06:23:52.559Z,1.31
2023-01-12T06:26:19.246Z,1.27
2023-01-12T06:28:45.970Z,1.43
2023-01-12T06:31:14.331Z,1.40
2023-01-12T06:33:41.479Z,1.34
2023-01-12T06:36:09.171Z,1.43
2023-01-12T06:38:37.323Z,1.54
2023-01-12T06:41:29.276Z,1.51
2023-01-12T06:43:56.406Z,1.25
2023-01-12T06:46:23.106Z,1.29
2023-01-12T06:48:49.885Z,1.44
2023-01-12T06:51:16.524Z,1.53
2023-01-12T06:53:43.189Z,1.42
2023-01-12T06:56:09.790Z,1.31
2023-01-12T06:58:38.290Z,1.32
2023-01-12T07:01:05.101Z,1.34
2023-01-12T07:03:31.668Z,1.47
2023-01-12T07:05:59.446Z,1.56
2023-01-12T07:08:26.654Z,1.58
2023-01-12T07:10:53.294Z,1.62
2023-01-12T07:13:20.216Z,1.56
2023-01-12T07:15:46.835Z,1.60
2023-01-12T07:18:13.560Z,1.66
2023-01-12T07:20:40.129Z,1.36
2023-01-12T07:23:06.698Z,1.51
2023-01-12T07:25:33.453Z,1.73
2023-01-12T07:28:00.400Z,1.72
2023-01-12T07:30:27.691Z,1.77
2023-01-12T07:32:55.179Z,1.69
2023-01-12T07:35:22.105Z,1.93
2023-01-12T07:37:50.549Z,1.85
2023-01-12T07:40:18.104Z,2.07
2023-01-12T07:42:44.853Z,2.01
2023-01-12T07:45:11.944Z,2.05
2023-01-12T07:47:39.379Z,2.22
2023-01-12T07:50:06.956Z,2.17
2023-01-12T07:52:33.883Z,2.01
2023-01-12T07:55:00.562Z,2.07
2023-01-12T07:57:27.245Z,2.11
2023-01-12T07:59:53.858Z,2.23
2023-01-12T08:02:20.580Z,2.18
2023-01-12T08:04:47.511Z,2.26
2023-01-12T08:07:15.216Z,2.25
2023-01-12T08:09:42.055Z,2.26
2023-01-12T08:12:08.759Z,2.30
2023-01-12T08:14:38.271Z,2.45
2023-01-12T08:17:12.693Z,2.55
2023-01-12T08:19:45.061Z,2.59
2023-01-12T08:22:18.055Z,2.48
2023-01-12T08:25:10.856Z,2.44
2023-01-12T08:27:43.484Z,2.46
2023-01-12T08:30:13.355Z,2.54
2023-01-12T08:32:40.106Z,2.53
2023-01-12T08:35:07.636Z,2.68
2023-01-12T08:37:35.319Z,2.70
2023-01-12T08:40:04.813Z,2.69
2023-01-12T08:42:31.878Z,2.63
2023-01-12T08:44:58.723Z,2.58
2023-01-12T08:47:27.723Z,2.82
2023-01-12T08:49:54.956Z,2.81
2023-01-12T08:52:21.839Z,2.73
2023-01-12T08:54:49.286Z,2.75
2023-01-12T08:57:19.914Z,2.82
2023-01-12T08:59:46.676Z,2.56
2023-01-12T09:02:14.743Z,2.85
2023-01-12T09:04:41.888Z,2.90
2023-01-12T09:07:09.904Z,2.64
2023-01-12T09:09:36.971Z,2.68
2023-01-12T09:12:04.370Z,3.04
2023-01-12T09:14:30.983Z,3.06
2023-01-12T09:16:57.657Z,3.03
2023-01-12T09:19:24.598Z,2.98
2023-01-12T09:21:51.244Z,3.06
2023-01-12T09:24:17.850Z,2.91
2023-01-12T09:26:46.359Z,2.62
2023-01-12T09:29:14.250Z,2.57
2023-01-12T09:31:43.718Z,2.59
2023-01-12T09:34:11.100Z,2.56
2023-01-12T09:36:39.657Z,2.57
2023-01-12T09:39:15.529Z,2.61
2023-01-12T09:42:08.981Z,2.75
2023-01-12T09:44:59.511Z,2.98
2023-01-12T09:47:53.770Z,2.78
2023-01-12T09:50:31.729Z,2.98
2023-01-12T09:53:07.441Z,2.90
2023-01-12T09:55:47.758Z,3.04
2023-01-12T09:58:45.295Z,3.01
2023-01-12T10:01:24.284Z,3.04
2023-01-12T10:03:56.389Z,2.88
2023-01-12T10:06:23.086Z,2.89
2023-01-12T10:08:52.211Z,2.92
2023-01-12T10:11:43.308Z,2.92
2023-01-12T10:14:28.268Z,3.00
2023-01-12T10:17:00.550Z,3.04
2023-01-12T10:19:47.540Z,3.18
2023-01-12T10:22:38.410Z,3.14
2023-01-12T10:25:23.054Z,3.10
2023-01-12T10:27:52.802Z,3.00
2023-01-12T10:30:31.952Z,3.25
2023-01-12T10:33:16.873Z,3.33
2023-01-12T10:36:09.157Z,3.33
2023-01-12T10:38:52.527Z,3.27
2023-01-12T10:41:24.356Z,3.22
2023-01-12T10:43:56.705Z,3.12
2023-01-12T10:46:24.281Z,3.26
2023-01-12T10:48:54.321Z,3.24
2023-01-12T10:51:30.861Z,3.43
2023-01-12T10:54:08.954Z,3.47
2023-01-12T10:56:52.869Z,3.28
2023-01-12T10:59:22.177Z,3.40
2023-01-12T11:02:14.567Z,3.55
2023-01-12T11:04:48.530Z,3.57
2023-01-12T11:07:25.760Z,3.63
2023-01-12T11:09:58.377Z,3.91
2023-01-12T11:12:35.607Z,3.81
2023-01-12T11:15:14.379Z,3.54
2023-01-12T11:17:52.368Z,3.79
2023-01-12T11:20:30.419Z,3.89
2023-01-12T11:23:03.036Z,3.81
2023-01-12T11:25:43.510Z,3.94
2023-01-12T11:28:34.852Z,3.96
2023-01-12T11:31:12.431Z,3.93
2023-01-12T11:33:42.627Z,3.92
2023-01-12T11:36:31.914Z,3.94
2023-01-12T11:39:02.158Z,4.17
2023-01-12T11:42:06.098Z,3.83
2023-01-12T11:44:36.743Z,3.96
2023-01-12T11:47:20.593Z,3.90
2023-01-12T11:49:52.882Z,4.21
2023-01-12T11:52:19.529Z,4.32
2023-01-12T11:54:46.285Z,4.47
2023-01-12T11:57:15.593Z,4.56
2023-01-12T11:59:54.091Z,4.39
2023-01-12T12:02:33.195Z,4.36
2023-01-12T12:05:18.123Z,4.25
2023-01-12T12:08:05.873Z,4.19
2023-01-12T12:10:41.174Z,4.11
2023-01-12T12:13:19.856Z,4.25
2023-01-12T12:16:07.890Z,4.17
2023-01-12T12:18:37.620Z,4.13
2023-01-12T12:21:13.010Z,4.00
2023-01-12T12:23:45.334Z,4.01
2023-01-12T12:26:21.311Z,4.07
2023-01-12T12:29:05.202Z,4.16
2023-01-12T12:31:53.396Z,4.19
2023-01-12T12:34:38.248Z,4.12
2023-01-12T12:37:32.363Z,4.05
2023-01-12T12:40:17.047Z,4.14
2023-01-12T12:43:22.626Z,4.26
2023-01-12T12:46:12.141Z,4.14
2023-01-12T12:48:59.308Z,4.03
2023-01-12T12:51:29.016Z,4.07
2023-01-12T12:53:56.268Z,4.11
2023-01-12T12:56:25.138Z,4.10
2023-01-12T12:58:57.390Z,4.13
2023-01-12T13:01:29.895Z,4.22
2023-01-12T13:04:03.150Z,4.06
2023-01-12T13:06:40.210Z,4.01
2023-01-12T13:09:12.731Z,4.01
2023-01-12T13:11:45.231Z,3.92
2023-01-12T13:14:42.553Z,3.85
2023-01-12T13:17:21.219Z,3.94
2023-01-12T13:20:24.252Z,3.94
2023-01-12T13:22:51.686Z,3.96
2023-01-12T13:25:22.294Z,3.96
2023-01-12T13:28:00.785Z,3.96
2023-01-12T13:30:30.339Z,3.94
2023-01-12T13:33:01.223Z,3.88
2023-01-12T13:35:33.491Z,3.93
2023-01-12T13:38:02.984Z,3.96
2023-01-12T13:40:31.797Z,3.84
2023-01-12T13:43:19.772Z,3.52
2023-01-12T13:45:54.688Z,3.98
2023-01-12T13:48:21.938Z,3.94
2023-01-12T13:50:53.788Z,3.99
2023-01-12T13:53:28.602Z,4.05
2023-01-12T13:56:03.291Z,3.90
2023-01-12T13:58:38.958Z,3.79
2023-01-12T14:01:08.177Z,3.84
2023-01-12T14:03:55.031Z,4.00
2023-01-12T14:06:29.243Z,3.88
2023-01-12T14:09:10.037Z,3.78
2023-01-12T14:11:55.137Z,3.64
2023-01-12T14:14:43.384Z,3.54
2023-01-12T14:17:36.267Z,3.46
2023-01-12T14:20:02.977Z,3.40
2023-01-12T14:22:29.904Z,3.57
2023-01-12T14:25:16.037Z,3.36
2023-01-12T14:27:50.595Z,3.43
2023-01-12T14:30:17.523Z,3.26
2023-01-12T14:32:46.327Z,3.16
2023-01-12T14:35:18.567Z,2.99
2023-01-12T14:37:50.156Z,3.00
2023-01-12T14:40:28.265Z,3.02
2023-01-12T14:43:13.814Z,3.02
2023-01-12T14:46:14.031Z,3.01
2023-01-12T14:48:43.767Z,2.98
2023-01-12T14:51:18.084Z,3.04
2023-01-12T14:53:47.779Z,2.93
2023-01-12T14:56:17.180Z,3.02
2023-01-12T14:58:48.397Z,3.05
2023-01-12T15:01:33.765Z,3.04
2023-01-12T15:04:00.910Z,2.97
2023-01-12T15:06:27.912Z,2.98
2023-01-12T15:08:58.133Z,2.84
2023-01-12T15:11:38.375Z,2.86
2023-01-12T15:14:06.888Z,2.74
2023-01-12T15:16:52.072Z,2.81
2023-01-12T15:19:37.307Z,2.71
2023-01-12T15:22:27.634Z,2.67
2023-01-12T15:25:14.178Z,2.79
2023-01-12T15:27:40.816Z,2.60
2023-01-12T15:30:09.126Z,2.52
2023-01-12T15:32:48.281Z,2.48
2023-01-12T15:35:18.083Z,1.92
2023-01-12T15:37:45.187Z,2.47
2023-01-12T15:40:15.177Z,2.42
2023-01-12T15:42:42.326Z,2.42
2023-01-12T15:45:28.522Z,2.43
2023-01-12T15:47:55.638Z,2.42
2023-01-12T15:50:22.272Z,2.40
2023-01-12T15:52:49.177Z,2.51
2023-01-12T15:55:18.580Z,2.50
2023-01-12T15:57:45.270Z,2.49
2023-01-12T16:00:18.958Z,2.39
2023-01-12T16:02:47.934Z,2.44
2023-01-12T16:05:16.897Z,2.49
2023-01-12T16:07:43.759Z,2.40
2023-01-12T16:10:11.630Z,2.44
2023-01-12T16:12:38.462Z,2.50
2023-01-12T16:15:13.691Z,2.52
2023-01-12T16:17:40.317Z,2.33
2023-01-12T16:20:07.673Z,2.39
2023-01-12T16:22:34.354Z,2.41
2023-01-12T16:25:01.017Z,2.54
2023-01-12T16:27:28.094Z,2.55
2023-01-12T16:29:55.013Z,2.43
2023-01-12T16:32:26.682Z,2.34
2023-01-12T16:34:53.796Z,2.20
2023-01-12T16:37:23.276Z,2.28
2023-01-12T16:39:50.240Z,2.32
2023-01-12T16:42:17.159Z,2.15
2023-01-12T16:44:43.765Z,2.37
2023-01-12T16:47:13.943Z,2.29
2023-01-12T16:49:40.739Z,2.41
2023-01-12T16:52:09.432Z,2.44
2023-01-12T16:54:41.695Z,2.36
2023-01-12T16:57:08.911Z,2.45
2023-01-12T16:59:35.613Z,2.44
2023-01-12T17:02:07.781Z,2.22
2023-01-12T17:04:36.011Z,2.46
2023-01-12T17:07:03.950Z,2.42
2023-01-12T17:09:31.321Z,2.39
2023-01-12T17:11:59.703Z,2.31
2023-01-12T17:14:27.869Z,2.37
2023-01-12T17:16:57.353Z,2.32
2023-01-12T17:19:26.256Z,2.41
2023-01-12T17:21:55.017Z,2.31
2023-01-12T17:24:22.450Z,2.47
2023-01-12T17:26:51.433Z,2.39
2023-01-12T17:29:18.544Z,2.28
2023-01-12T17:31:45.396Z,2.39
2023-01-12T17:34:13.350Z,2.41
2023-01-12T17:36:40.808Z,2.42
2023-01-12T17:39:08.378Z,2.49
2023-01-12T17:41:54.077Z,2.23
2023-01-12T17:44:21.263Z,2.41
2023-01-12T17:46:48.424Z,2.43
2023-01-12T17:49:15.557Z,2.37
2023-01-12T17:51:42.304Z,2.43
2023-01-12T17:54:12.216Z,2.44
2023-01-12T17:56:38.857Z,2.40
2023-01-12T17:59:05.901Z,2.39
2023-01-12T18:01:34.890Z,2.51
2023-01-12T18:04:02.020Z,2.36
2023-01-12T18:06:29.082Z,2.48
2023-01-12T18:08:56.955Z,2.25
2023-01-12T18:11:23.780Z,2.37
2023-01-12T18:13:50.426Z,2.26
2023-01-12T18:16:17.643Z,2.38
2023-01-12T18:18:45.055Z,2.51
2023-01-12T18:21:14.882Z,2.49
2023-01-12T18:23:43.668Z,2.42
2023-01-12T18:26:16.021Z,2.46
2023-01-12T18:28:42.655Z,2.52
2023-01-12T18:31:13.306Z,2.44
2023-01-12T18:33:40.239Z,2.43
2023-01-12T18:36:22.332Z,2.25
2023-01-12T18:38:51.133Z,2.36
2023-01-12T18:41:38.013Z,2.46
2023-01-12T18:44:06.404Z,2.44
2023-01-12T18:46:53.325Z,2.50
2023-01-12T18:49:25.043Z,2.46
2023-01-12T18:52:10.827Z,2.40
2023-01-12T18:54:48.241Z,2.42
2023-01-12T18:57:19.627Z,2.38
2023-01-12T18:59:47.763Z,2.31
2023-01-12T19:02:16.696Z,2.37
2023-01-12T19:04:50.227Z,2.25
2023-01-12T19:07:51.098Z,2.27
2023-01-12T19:10:18.112Z,2.23
2023-01-12T19:12:46.203Z,2.19
2023-01-12T19:15:32.373Z,2.30
2023-01-12T19:17:59.251Z,2.19
2023-01-12T19:20:30.433Z,2.12
2023-01-12T19:23:17.707Z,2.16
2023-01-12T19:26:03.037Z,2.07
2023-01-12T19:28:32.900Z,1.95
2023-01-12T19:31:01.366Z,2.06
2023-01-12T19:33:28.665Z,2.13
2023-01-12T19:35:55.537Z,2.05
2023-01-12T19:38:22.808Z,1.97
2023-01-12T19:40:54.364Z,2.00
2023-01-12T19:43:26.321Z,2.03
2023-01-12T19:45:59.213Z,1.96
2023-01-12T19:48:27.011Z,2.08
2023-01-12T19:50:54.088Z,1.99
2023-01-12T19:53:28.290Z,1.88
2023-01-12T19:55:55.178Z,2.05
2023-01-12T19:58:22.413Z,1.93
2023-01-12T20:00:50.159Z,2.04
2023-01-12T20:03:19.200Z,2.00
2023-01-12T20:05:53.538Z,1.93
2023-01-12T20:08:23.280Z,1.87
2023-01-12T20:10:58.081Z,2.01
2023-01-12T20:13:25.722Z,1.91
2023-01-12T20:15:53.349Z,1.92
2023-01-12T20:18:20.231Z,1.91
2023-01-12T20:20:48.713Z,2.06
2023-01-12T20:23:16.058Z,1.93
2023-01-12T20:25:43.902Z,1.91
2023-01-12T20:28:13.358Z,1.80
2023-01-12T20:30:41.882Z,1.82
2023-01-12T20:33:09.403Z,1.94
2023-01-12T20:35:38.539Z,1.91
2023-01-12T20:38:15.779Z,2.04
2023-01-12T20:40:45.131Z,2.08
2023-01-12T20:43:12.441Z,2.07
2023-01-12T20:45:42.051Z,2.11
2023-01-12T20:48:10.788Z,2.10
2023-01-12T20:50:46.317Z,2.03
2023-01-12T20:53:15.321Z,1.99
2023-01-12T20:55:48.185Z,2.10
2023-01-12T20:58:15.109Z,2.06
2023-01-12T21:00:42.366Z,2.03
2023-01-12T21:03:09.149Z,2.05
2023-01-12T21:05:35.929Z,2.04
2023-01-12T21:08:08.409Z,2.13
2023-01-12T21:10:36.382Z,1.96
2023-01-12T21:13:03.551Z,2.05
2023-01-12T21:15:30.428Z,2.21
2023-01-12T21:17:57.529Z,2.26
2023-01-12T21:20:24.310Z,2.11
2023-01-12T21:22:51.047Z,2.21
2023-01-12T21:25:18.419Z,2.29
2023-01-12T21:27:45.133Z,1.93
2023-01-12T21:30:12.710Z,2.09
2023-01-12T21:32:43.560Z,2.05
2023-01-12T21:35:10.183Z,2.14
2023-01-12T21:37:36.954Z,2.15
2023-01-12T21:40:04.447Z,2.25
2023-01-12T21:42:50.318Z,2.17
2023-01-12T21:45:17.210Z,2.06
2023-01-12T21:47:46.355Z,2.11
2023-01-12T21:50:13.147Z,2.22
2023-01-12T21:52:41.508Z,2.18
2023-01-12T21:55:11.345Z,2.26
2023-01-12T21:57:38.004Z,2.18
2023-01-12T22:00:05.215Z,2.09
2023-01-12T22:02:34.030Z,2.09
2023-01-12T22:05:00.654Z,2.04
2023-01-12T22:07:28.049Z,2.07
2023-01-12T22:09:55.132Z,2.08
2023-01-12T22:12:21.714Z,2.09
2023-01-12T22:14:48.288Z,2.01
2023-01-12T22:17:15.085Z,1.92
2023-01-12T22:19:41.681Z,2.10
2023-01-12T22:22:08.266Z,2.13
2023-01-12T22:24:34.866Z,2.18
2023-01-12T22:27:02.494Z,2.04
2023-01-12T22:29:29.581Z,2.12
2023-01-12T22:31:56.220Z,2.19
2023-01-12T22:34:25.035Z,2.08
2023-01-12T22:36:51.799Z,2.20
2023-01-12T22:39:18.370Z,2.04
2023-01-12T22:41:44.977Z,2.12
2023-01-12T22:44:11.615Z,2.17
2023-01-12T22:46:38.572Z,2.03
2023-01-12T22:49:05.178Z,2.17
2023-01-12T22:51:31.785Z,2.00
2023-01-12T22:53:58.818Z,2.07
2023-01-12T22:56:25.646Z,2.10
2023-01-12T22:58:55.206Z,2.07
2023-01-12T23:01:23.386Z,2.11
2023-01-12T23:03:54.273Z,1.98
2023-01-12T23:06:22.490Z,2.20
2023-01-12T23:08:50.132Z,2.17
2023-01-12T23:11:22.950Z,2.12
2023-01-12T23:13:50.096Z,2.15
2023-01-12T23:16:17.790Z,2.00
2023-01-12T23:18:46.206Z,2.12
2023-01-12T23:21:24.911Z,2.08
2023-01-12T23:23:57.139Z,2.05
2023-01-12T23:26:28.089Z,2.17
2023-01-12T23:28:57.264Z,2.02
2023-01-12T23:31:26.705Z,2.06
2023-01-12T23:33:53.520Z,2.06
2023-01-12T23:36:23.007Z,2.06
2023-01-12T23:38:58.049Z,2.17
2023-01-12T23:41:27.696Z,2.23
2023-01-12T23:43:57.639Z,2.15
2023-01-12T23:46:24.632Z,2.19
2023-01-12T23:48:52.988Z,2.27
2023-01-12T23:51:20.328Z,2.33
2023-01-12T23:53:47.319Z,2.39
2023-01-12T23:56:16.493Z,2.28
2023-01-12T23:58:43.783Z,2.19
